Weather observations for the past three days for
Avalon Catalina Airport
| Date | Time (pdt) | Wind (mph) | Vis. (mi.) | Weather | Sky Cond. | Temperature (ºF) | Relative Humidity | Wind Chill (°F) | Heat Index (°F) | Pressure | Precipitation (in) | ||||||
|---|---|---|---|---|---|---|---|---|---|---|---|---|---|---|---|---|---|
| Air | Dwpt | 6 hour | altimeter (in) | sea level (mb) | 1 hr | 3 hr | 6 hr | ||||||||||
| Max. | Min. | ||||||||||||||||
| 04 | 15:51 | W 12 | 10.00 | Overcast | BKN014 OVC039 | 57.9 | 48 | 70% | 29.99 | 1015.2 | |||||||
| 04 | 14:51 | W 12 | 10.00 | Overcast | FEW014 BKN045 OVC060 | 59 | 48 | 67% | 30.01 | 1015.7 | |||||||
| 04 | 13:51 | W 14 | 10.00 | Overcast | SCT016 BKN028 OVC070 | 59 | 46.9 | 64% | 30.03 | 1016.2 | |||||||
| 04 | 12:51 | W 13 | 10.00 | Overcast | SCT012 BKN017 OVC060 | 57.9 | 48.9 | 72% | 30.03 | 1016.3 | |||||||
| 04 | 11:51 | W 12 | 10.00 | Mostly Cloudy | SCT016 BKN020 BKN027 | 57 | 48 | 72% | 30.03 | 1016.5 | |||||||
| 04 | 10:51 | W 10 | 10.00 | Partly Cloudy | SCT014 | 57.9 | 46.9 | 57.9 | 51.1 | 67% | 30.03 | 1016.3 | |||||
| 04 | 09:51 | W 10 | 10.00 | Overcast | OVC055 | 55.9 | 46.9 | 72% | 30.02 | 1015.9 | |||||||
| 04 | 08:51 | W 10 | 10.00 | Partly Cloudy | FEW011 SCT018 | 55 | 46.9 | 74% | 30.01 | 1015.7 | |||||||
| 04 | 07:51 | W 9 | 10.00 | Mostly Cloudy | BKN007 | 54 | 48.9 | 83% | 30 | 1015.4 | |||||||
| 04 | 06:51 | W 9 | 10.00 | Partly Cloudy | SCT008 | 52 | 48 | 86% | 29.99 | 1015.3 | |||||||
| 04 | 05:51 | W 10 | 10.00 | A Few Clouds | FEW006 | 51.1 | 48 | 89% | 29.98 | 1014.8 | |||||||
| 04 | 04:51 | W 8 | 10.00 | A Few Clouds | FEW010 | 51.1 | 46.9 | 53.1 | 51.1 | 86% | 29.98 | 1014.9 | |||||
| 04 | 03:51 | W 14 | 10.00 | Overcast | BKN010 BKN013 OVC024 | 52 | 48 | 86% | 29.98 | 1014.8 | |||||||
| 04 | 02:51 | W 12 | 10.00 | Mostly Cloudy | BKN038 | 52 | 48 | 86% | 29.98 | 1014.6 | |||||||
| 04 | 01:51 | W 10 | 10.00 | Mostly Cloudy | SCT010 BKN021 | 52 | 48 | 86% | 29.98 | 1014.7 | |||||||
| 04 | 00:51 | W 13 | 10.00 | Overcast | BKN007 OVC033 | 52 | 48.9 | 89% | 30 | 1015.4 | |||||||
| 03 | 23:51 | W 16 | 10.00 | Overcast | SCT008 BKN013 OVC031 | 53.1 | 48.9 | 86% | 30.02 | 1016.1 | |||||||
| 03 | 22:51 | W 12 | 10.00 | Overcast | BKN010 BKN017 OVC029 | 53.1 | 48 | 57 | 53.1 | 83% | 30 | 1015.4 | |||||
| 03 | 21:51 | W 8 | 10.00 | Overcast | SCT009 OVC036 | 53.1 | 48 | 83% | 29.99 | 1015.1 | |||||||
| 03 | 20:51 | W 9 | 10.00 | Overcast | BKN008 BKN014 OVC037 | 53.1 | 48.9 | 86% | 29.98 | 1014.9 | |||||||
| 03 | 19:51 | W 10 | 10.00 | Overcast | SCT007 OVC038 | 53.1 | 48.9 | 86% | 29.96 | 1014.2 | |||||||
| 03 | 18:51 | W 9 | 10.00 | Overcast | OVC037 | 54 | 48.9 | 83% | 29.96 | 1014.2 | |||||||
| 03 | 17:51 | SW 9 | 10.00 | Overcast | OVC035 | 55 | 46 | 72% | 29.95 | 1013.8 | |||||||
| 03 | 16:51 | W 12 | 10.00 | Overcast | OVC035 | 57 | 46.9 | 59 | 55 | 69% | 29.94 | 1013.3 | |||||
| 03 | 15:51 | W 9 | 10.00 | Overcast | BKN013 BKN027 OVC036 | 55.9 | 48.9 | 77% | 29.94 | 1013.5 | |||||||
| 03 | 14:51 | W 10 | 10.00 | Overcast | SCT020 OVC035 | 57.9 | 46.9 | 67% | 29.96 | 1013.9 | |||||||
| 03 | 13:51 | W 7 | 10.00 | Overcast | OVC024 | 57 | 46 | 67% | 29.97 | 1014.3 | |||||||
| 03 | 12:51 | N 7 | 10.00 | Overcast | BKN024 OVC028 | 57 | 46 | 67% | 29.97 | 1014.4 | |||||||
| 03 | 11:51 | N 8 | 10.00 | Overcast | OVC028 | 57 | 45 | 64% | 29.98 | 1014.6 | |||||||
| 03 | 10:51 | NW 8 | 10.00 | Overcast | OVC027 | 57 | 45 | 57 | 51.1 | 64% | 29.98 | 1014.8 | |||||
| 03 | 09:51 | W 6 | 10.00 | Overcast | OVC023 | 55.9 | 44.1 | 65% | 29.98 | 1014.5 | |||||||
| 03 | 08:51 | W 6 | 10.00 | Partly Cloudy | FEW014 SCT020 | 55 | 46.9 | 74% | 29.97 | 1014.3 | |||||||
| 03 | 07:51 | W 6 | 10.00 | Fair | CLR | 54 | 48 | 80% | 29.96 | 1013.9 | |||||||
| 03 | 06:51 | Calm | 10.00 | Fair | CLR | 51.1 | 48 | 89% | 29.94 | 1013.3 | |||||||
| 03 | 05:51 | W 5 | 10.00 | Partly Cloudy | SCT015 | 51.1 | 48 | 89% | 29.93 | 1013.0 | |||||||
| 03 | 04:51 | W 5 | 10.00 | Overcast | OVC013 | 53.1 | 48.9 | 53.1 | 52 | 86% | 29.92 | 1012.2 | |||||
| 03 | 03:51 | W 6 | 10.00 | Overcast | BKN003 OVC009 | 52 | 51.1 | 97% | 29.92 | 1012.7 | |||||||
| 03 | 02:51 | W 8 | 10.00 | Mostly Cloudy | BKN011 | 52 | 48 | 86% | 29.93 | 1012.8 | |||||||
| 03 | 01:51 | W 12 | 10.00 | Overcast | OVC007 | 52 | 50 | 93% | 29.93 | 1012.9 | |||||||
| 03 | 00:51 | W 8 | 10.00 | Overcast | OVC003 | 52 | 50 | 93% | 29.94 | 1013.2 | |||||||
| 02 | 23:51 | W 12 | 10.00 | Overcast | OVC002 | 53.1 | 51.1 | 93% | 29.94 | 1012.9 | |||||||
| 02 | 22:51 | SW 15 | 6.00 | Fog/Mist | OVC002 | 53.1 | 51.1 | 59 | 53.1 | 93% | 29.94 | 1013.1 | |||||
| 02 | 21:51 | SW 13 | 2.50 | Fog/Mist | OVC002 | 53.1 | 52 | 96% | 29.93 | 1013.0 | |||||||
| 02 | 20:51 | SW 12 | 0.75 | Fog/Mist | VV002 | 53.1 | 52 | 96% | 29.91 | 1012.5 | |||||||
| 02 | 19:51 | SW 10 | 1.00 | Fog/Mist | VV001 | 53.1 | 52 | 96% | 29.89 | 1011.8 | |||||||
| 02 | 18:51 | SW 5 | 10.00 | Fair | CLR | 57 | 48 | 72% | 29.88 | 1011.3 | |||||||
| 02 | 17:51 | SW 13 | 10.00 | Fair | CLR | 57 | 52 | 83% | 29.88 | 1011.3 | |||||||
| 02 | 16:51 | SW 8 | 10.00 | Fair | CLR | 60.1 | 51.1 | 63 | 57 | 72% | 29.88 | 1011.1 | |||||
| 02 | 15:51 | SW 15 | 10.00 | Fair | CLR | 57.9 | 52 | 81% | 29.89 | 1011.6 | |||||||
| 02 | 14:51 | SW 14 | 10.00 | Fair | CLR | 59 | 51.1 | 75% | 29.93 | 1012.7 | |||||||
| 02 | 13:51 | SW 14 | 10.00 | Fair | CLR | 59 | 52 | 78% | 29.95 | 1013.5 | |||||||
| 02 | 12:51 | W 10 | 10.00 | Fair | CLR | 59 | 52 | 78% | 29.96 | 1013.9 | |||||||
| 02 | 11:51 | NW 7 | 10.00 | Fair | CLR | 62.1 | 53.1 | 73% | 29.98 | 1014.1 | |||||||
| 02 | 10:51 | Vrbl 5 | 10.00 | Mostly Cloudy | BKN007 | 57 | 54 | 57 | 53.1 | 90% | 29.99 | 1014.7 | |||||
| 02 | 09:51 | Calm | 2.50 | Fog/Mist | OVC002 | 54 | 54 | 100% | 29.99 | 1015.0 | |||||||
| 02 | 08:51 | Vrbl 3 | 0.15 | Fog | VV001 | 53.1 | 53.1 | 100% | 29.99 | 1015.1 | |||||||
| 02 | 07:51 | SW 5 | 0.15 | Fog | VV002 | 53.1 | 53.1 | 100% | 29.98 | 1014.9 | |||||||
| 02 | 06:51 | SW 7 | 0.15 | Fog | VV001 | 53.1 | 53.1 | 100% | 29.98 | 1014.5 | |||||||
| 02 | 05:51 | SW 5 | 0.15 | Fog | VV001 | 53.1 | 53.1 | 100% | 29.95 | 1013.5 | |||||||
| 02 | 04:51 | SW 7 | 0.15 | Fog | VV002 | 53.1 | 53.1 | 54 | 53.1 | 100% | 29.95 | 1013.2 | |||||
| 02 | 03:51 | SW 3 | 0.15 | Fog | VV001 | 53.1 | 53.1 | 100% | 29.94 | 1013.0 | |||||||
| 02 | 02:51 | Vrbl 3 | 0.15 | Fog | VV002 | 53.1 | 53.1 | 100% | 29.93 | 1012.7 | |||||||
| 02 | 01:51 | Vrbl 3 | 0.15 | Fog | VV001 | 53.1 | 53.1 | 100% | 29.95 | 1013.1 | |||||||
| 02 | 00:51 | S 3 | 0.25 | Fog | VV002 | 53.1 | 53.1 | 100% | 29.96 | 1013.7 | |||||||
| 01 | 23:51 | S 3 | 0.25 | Fog | VV002 | 53.1 | 53.1 | 100% | 29.97 | 1013.8 | |||||||
| 01 | 22:51 | SE 3 | 0.25 | Fog | VV002 | 54 | 54 | 61 | 53.1 | 100% | 29.96 | 1013.6 | |||||
| 01 | 21:51 | SE 3 | 1.00 | Fog/Mist | VV004 | 54 | 54 | 100% | 29.96 | 1014.1 | |||||||
| 01 | 20:51 | SW 5 | 0.25 | Fog | VV001 | 54 | 54 | 100% | 29.95 | 1013.6 | |||||||
| 01 | 19:51 | SW 6 | 0.25 | Fog | VV002 | 55 | 54 | 96% | 29.93 | 1013.0 | |||||||
| 01 | 18:51 | W 14 | 0.50 | Fog | VV002 | 55.9 | 55 | 97% | 29.92 | 1012.5 | |||||||
| 01 | 17:51 | SW 10 | 6.00 | Fog/Mist | BKN002 | 57.9 | 55 | 90% | 29.92 | 1012.6 | |||||||
| 01 | 16:51 | W 13 | 10.00 | Fair | CLR | 61 | 54 | 64.9 | 60.1 | 78% | 29.92 | 1012.2 | |||||
| Date | Time (pdt) | Wind (mph) | Vis. (mi.) | Weather | Sky Cond. | Air | Dwpt | Max. | Min. | Relative Humidity | Wind Chill (°F) | Heat Index (°F) | altimeter (in) | sea level (mb) | 1 hr | 3 hr | 6 hr |
| 6 hour | |||||||||||||||||
| Temperature (ºF) | Pressure | Precipitation (in) | |||||||||||||||